createdAt,value
2018-11-10T00:00:18.525Z,81.77
2018-11-10T00:02:47.155Z,79.60
2018-11-10T00:05:15.633Z,85.07
2018-11-10T00:07:43.711Z,87.97
2018-11-10T00:10:11.787Z,96.50
2018-11-10T00:12:39.789Z,87.90
2018-11-10T00:15:09.525Z,92.70
2018-11-10T00:17:37.579Z,95.10
2018-11-10T00:20:05.675Z,87.50
2018-11-10T00:22:33.750Z,97.97
2018-11-10T00:25:01.826Z,95.57
2018-11-10T00:27:29.866Z,95.60
2018-11-10T00:29:57.882Z,96.03
2018-11-10T00:32:25.941Z,86.27
2018-11-10T00:34:54.065Z,100.80
2018-11-10T00:37:22.142Z,88.57
2018-11-10T00:39:50.274Z,105.17
2018-11-10T00:42:18.626Z,85.80
2018-11-10T00:44:46.705Z,101.30
2018-11-10T00:47:14.713Z,83.03
2018-11-10T00:49:42.766Z,97.60
2018-11-10T00:52:10.765Z,85.33
2018-11-10T00:54:38.787Z,109.27
2018-11-10T00:57:07.127Z,91.63
2018-11-10T00:59:35.154Z,90.63
2018-11-10T01:02:03.257Z,89.30
2018-11-10T01:04:31.309Z,91.53
2018-11-10T01:06:59.463Z,98.93
2018-11-10T01:09:27.559Z,101.43
2018-11-10T01:11:55.641Z,102.27
2018-11-10T01:14:23.717Z,96.73
2018-11-10T01:16:51.733Z,108.60
2018-11-10T01:19:19.885Z,100.60
2018-11-10T01:21:47.901Z,87.33
2018-11-10T01:24:16.013Z,110.97
2018-11-10T01:26:44.022Z,89.07
2018-11-10T01:29:18.509Z,98.00
2018-11-10T01:31:46.519Z,105.03
2018-11-10T01:34:14.530Z,120.90
2018-11-10T01:36:42.622Z,104.33
2018-11-10T01:39:10.709Z,99.17
2018-11-10T01:41:39.237Z,99.57
2018-11-10T01:44:08.921Z,99.10
2018-11-10T01:46:36.934Z,89.43
2018-11-10T01:49:05.610Z,99.27
2018-11-10T01:51:33.706Z,96.23
2018-11-10T01:54:01.966Z,108.77
2018-11-10T01:56:30.058Z,100.30
2018-11-10T01:58:59.148Z,100.73
2018-11-10T02:01:27.558Z,110.90
2018-11-10T02:03:55.846Z,105.73
2018-11-10T02:06:23.967Z,96.50
2018-11-10T02:08:52.009Z,84.87
2018-11-10T02:11:20.052Z,105.10
2018-11-10T02:13:48.156Z,84.40
2018-11-10T02:16:16.164Z,97.63
2018-11-10T02:18:44.345Z,95.97
2018-11-10T02:21:12.410Z,91.57
2018-11-10T02:23:40.725Z,104.03
2018-11-10T02:26:08.742Z,92.10
2018-11-10T02:28:36.794Z,92.27
2018-11-10T02:31:04.850Z,91.93
2018-11-10T02:33:32.885Z,88.97
2018-11-10T02:36:00.898Z,92.57
2018-11-10T02:38:28.975Z,96.17
2018-11-10T02:40:56.987Z,89.13
2018-11-10T02:43:25.086Z,97.90
2018-11-10T02:45:53.145Z,103.87
2018-11-10T02:48:21.224Z,104.07
2018-11-10T02:50:49.232Z,89.60
2018-11-10T02:53:17.242Z,94.07
2018-11-10T02:55:45.286Z,88.60
2018-11-10T02:58:13.286Z,93.07
2018-11-10T03:00:41.382Z,81.27
2018-11-10T03:03:09.388Z,90.93
2018-11-10T03:05:37.413Z,88.30
2018-11-10T03:08:05.629Z,72.40
2018-11-10T03:10:33.718Z,84.27
2018-11-10T03:13:01.797Z,75.97
2018-11-10T03:15:29.825Z,86.20
2018-11-10T03:17:57.862Z,85.70
2018-11-10T03:20:25.956Z,99.37
2018-11-10T03:22:53.945Z,80.40
2018-11-10T03:25:21.958Z,69.20
2018-11-10T03:27:49.998Z,62.33
2018-11-10T03:30:18.013Z,80.10
2018-11-10T03:32:46.360Z,67.47
2018-11-10T03:35:14.438Z,83.57
2018-11-10T03:37:42.502Z,81.00
2018-11-10T03:40:11.579Z,84.17
2018-11-10T03:42:40.136Z,80.67
2018-11-10T03:45:09.557Z,58.47
2018-11-10T03:47:37.566Z,58.93
2018-11-10T03:50:06.134Z,65.43
2018-11-10T03:52:34.169Z,67.23
2018-11-10T03:55:02.220Z,75.50
2018-11-10T03:57:30.280Z,68.63
2018-11-10T03:59:58.429Z,78.60
2018-11-10T04:02:26.866Z,75.73
2018-11-10T04:04:54.886Z,82.97
2018-11-10T04:09:56.510Z,66.83
2018-11-10T04:12:24.598Z,105.40
2018-11-10T04:14:52.968Z,75.30
2018-11-10T04:17:21.018Z,77.23
2018-11-10T04:19:49.169Z,82.57
2018-11-10T04:22:21.674Z,80.73
2018-11-10T04:24:49.760Z,80.67
2018-11-10T04:27:17.801Z,70.50
2018-11-10T04:29:45.806Z,79.20
2018-11-10T04:32:13.902Z,79.37
2018-11-10T04:34:41.944Z,85.00
2018-11-10T04:37:09.978Z,81.87
2018-11-10T04:39:38.037Z,90.27
2018-11-10T04:42:06.042Z,86.13
2018-11-10T04:44:34.127Z,96.30
2018-11-10T04:47:02.171Z,82.60
2018-11-10T04:49:30.200Z,89.50
2018-11-10T04:51:58.286Z,90.20
2018-11-10T04:54:26.328Z,95.93
2018-11-10T04:56:54.389Z,84.07
2018-11-10T04:59:22.425Z,92.97
2018-11-10T05:01:50.469Z,86.07
2018-11-10T05:04:18.505Z,88.20
2018-11-10T05:06:46.673Z,95.40
2018-11-10T05:09:14.761Z,80.87
2018-11-10T05:11:42.761Z,83.67
2018-11-10T05:14:10.839Z,83.60
2018-11-10T05:16:38.847Z,91.73
2018-11-10T05:19:07.001Z,86.47
2018-11-10T05:21:35.058Z,89.10
2018-11-10T05:24:03.258Z,93.50
2018-11-10T05:26:31.347Z,97.87
2018-11-10T05:28:59.349Z,82.13
2018-11-10T05:31:27.719Z,75.30
2018-11-10T05:33:55.777Z,78.90
2018-11-10T05:36:23.791Z,84.57
2018-11-10T05:38:51.850Z,96.50
2018-11-10T05:41:19.953Z,86.80
2018-11-10T05:43:48.035Z,81.10
2018-11-10T05:46:16.077Z,75.70
2018-11-10T05:48:44.107Z,76.90
2018-11-10T05:51:12.158Z,88.03
2018-11-10T05:53:40.276Z,90.33
2018-11-10T05:56:09.277Z,80.73
2018-11-10T05:58:37.400Z,91.10
2018-11-10T06:01:06.164Z,91.23
2018-11-10T06:03:34.253Z,80.53
2018-11-10T06:06:02.268Z,84.43
2018-11-10T06:08:30.306Z,85.10
2018-11-10T06:10:58.313Z,77.47
2018-11-10T06:13:26.390Z,67.37
2018-11-10T06:15:54.533Z,82.07
2018-11-10T06:18:22.489Z,76.33
2018-11-10T06:20:50.841Z,95.30
2018-11-10T06:23:18.907Z,62.37
2018-11-10T06:25:47.322Z,74.87
2018-11-10T06:28:15.380Z,69.10
2018-11-10T06:30:43.470Z,77.50
2018-11-10T06:33:11.546Z,69.47
2018-11-10T06:35:39.670Z,76.83
2018-11-10T06:38:07.746Z,96.57
2018-11-10T06:40:36.090Z,80.43
2018-11-10T06:43:04.650Z,70.57
2018-11-10T06:45:32.728Z,89.87
2018-11-10T06:48:00.801Z,69.00
2018-11-10T06:50:28.904Z,79.90
2018-11-10T06:52:56.993Z,92.37
2018-11-10T06:55:25.059Z,77.33
2018-11-10T06:57:53.111Z,94.67
2018-11-10T07:00:21.210Z,87.57
2018-11-10T07:02:49.282Z,85.23
2018-11-10T07:05:17.400Z,87.60
2018-11-10T07:07:45.441Z,77.57
2018-11-10T07:10:13.518Z,67.53
2018-11-10T07:12:41.594Z,90.23
2018-11-10T07:15:09.724Z,77.80
2018-11-10T07:17:38.093Z,86.90
2018-11-10T07:20:06.398Z,86.60
2018-11-10T07:22:34.422Z,83.57
2018-11-10T07:25:02.833Z,82.80
2018-11-10T07:27:30.794Z,83.93
2018-11-10T07:29:58.900Z,82.03
2018-11-10T07:32:27.024Z,72.77
2018-11-10T07:34:55.159Z,77.70
2018-11-10T07:37:23.319Z,71.67
2018-11-10T07:39:51.353Z,79.67
2018-11-10T07:42:19.489Z,83.10
2018-11-10T07:44:47.589Z,68.83
2018-11-10T07:47:15.605Z,56.60
2018-11-10T07:49:43.739Z,75.50
2018-11-10T07:52:11.906Z,70.80
2018-11-10T07:54:39.921Z,59.83
2018-11-10T07:57:08.173Z,64.73
2018-11-10T07:59:36.389Z,70.50
2018-11-10T08:02:04.657Z,65.93
2018-11-10T08:04:33.044Z,62.77
2018-11-10T08:07:01.066Z,66.57
2018-11-10T08:09:29.186Z,60.70
2018-11-10T08:11:57.673Z,57.00
2018-11-10T08:14:25.621Z,65.73
2018-11-10T08:16:53.642Z,65.87
2018-11-10T08:19:21.959Z,57.43
2018-11-10T08:21:50.038Z,57.30
2018-11-10T08:24:18.065Z,58.47
2018-11-10T08:26:46.218Z,64.23
2018-11-10T08:29:14.262Z,60.67
2018-11-10T08:31:42.422Z,58.67
2018-11-10T08:34:10.441Z,57.57
2018-11-10T08:36:38.550Z,67.60
2018-11-10T08:39:08.469Z,69.87
2018-11-10T08:41:36.664Z,65.40
2018-11-10T08:44:05.353Z,57.47
2018-11-10T08:46:33.453Z,56.40
2018-11-10T08:49:01.499Z,70.30
2018-11-10T08:51:29.853Z,61.73
2018-11-10T08:53:58.008Z,62.33
2018-11-10T08:56:26.098Z,62.10
2018-11-10T08:58:54.535Z,60.50
2018-11-10T09:01:22.553Z,53.13
2018-11-10T09:03:50.653Z,58.23
2018-11-10T09:06:19.045Z,60.80
2018-11-10T09:08:47.045Z,59.10
2018-11-10T09:11:15.113Z,55.90
2018-11-10T09:13:43.186Z,63.50
2018-11-10T09:16:11.269Z,61.50
2018-11-10T09:18:39.666Z,56.00
2018-11-10T09:21:07.831Z,51.93
2018-11-10T09:23:35.950Z,62.40
2018-11-10T09:26:04.026Z,61.70
2018-11-10T09:28:32.137Z,51.47
2018-11-10T09:31:00.224Z,52.80
2018-11-10T09:33:28.319Z,51.73
2018-11-10T09:35:56.398Z,54.87
2018-11-10T09:38:24.418Z,53.30
2018-11-10T09:40:52.525Z,56.10
2018-11-10T09:43:21.017Z,49.17
2018-11-10T09:45:49.046Z,55.47
2018-11-10T09:48:17.050Z,51.37
2018-11-10T09:50:45.280Z,51.73
2018-11-10T09:53:13.354Z,52.23
2018-11-10T09:55:41.422Z,46.93
2018-11-10T09:58:09.442Z,43.80
2018-11-10T10:00:37.497Z,46.70
2018-11-10T10:03:05.908Z,48.63
2018-11-10T10:05:33.935Z,46.67
2018-11-10T10:08:01.959Z,48.43
2018-11-10T10:10:30.043Z,43.40
2018-11-10T10:12:58.097Z,51.00
2018-11-10T10:15:26.245Z,45.60
2018-11-10T10:17:54.335Z,48.67
2018-11-10T10:20:22.393Z,50.10
2018-11-10T10:22:51.094Z,45.20
2018-11-10T10:25:19.679Z,50.47
2018-11-10T10:27:48.477Z,43.43
2018-11-10T10:30:24.625Z,46.70
2018-11-10T10:32:53.259Z,49.43
2018-11-10T10:35:21.454Z,42.07
2018-11-10T10:37:50.236Z,44.77
2018-11-10T10:40:18.474Z,40.73
2018-11-10T10:42:47.052Z,39.73
2018-11-10T10:45:16.549Z,46.53
2018-11-10T10:47:44.813Z,37.63
2018-11-10T10:50:14.039Z,41.97
2018-11-10T10:52:42.282Z,39.73
2018-11-10T10:55:11.743Z,37.63
2018-11-10T10:57:39.778Z,38.97
2018-11-10T11:00:14.904Z,35.83
2018-11-10T11:02:48.621Z,41.80
2018-11-10T11:05:20.305Z,36.03
2018-11-10T11:07:48.656Z,45.33
2018-11-10T11:10:16.669Z,44.30
2018-11-10T11:12:44.731Z,41.80
2018-11-10T11:15:12.976Z,39.70
2018-11-10T11:17:41.121Z,48.17
2018-11-10T11:20:09.433Z,40.97
2018-11-10T11:22:37.550Z,37.20
2018-11-10T11:25:05.882Z,36.27
2018-11-10T11:27:34.147Z,40.07
2018-11-10T11:30:02.738Z,40.50
2018-11-10T11:32:31.078Z,48.07
2018-11-10T11:34:59.324Z,35.70
2018-11-10T11:37:27.421Z,42.57
2018-11-10T11:39:55.496Z,39.20
2018-11-10T11:42:23.511Z,42.27
2018-11-10T11:44:51.592Z,39.20
2018-11-10T11:47:19.618Z,41.30
2018-11-10T11:49:47.744Z,33.07
2018-11-10T11:52:15.854Z,36.87
2018-11-10T11:54:54.433Z,35.13
2018-11-10T11:57:22.480Z,40.57
2018-11-10T11:59:50.514Z,39.90
2018-11-10T12:02:18.740Z,39.80
2018-11-10T12:04:46.730Z,35.50
2018-11-10T12:07:14.817Z,44.60
2018-11-10T12:09:42.929Z,43.27
2018-11-10T12:12:11.018Z,34.92
2018-11-10T12:14:39.033Z,32.50
2018-11-10T12:17:07.214Z,42.40
2018-11-10T12:19:35.172Z,40.43
2018-11-10T12:22:03.842Z,39.27
2018-11-10T12:24:31.998Z,37.87
2018-11-10T12:27:00.075Z,38.17
2018-11-10T12:29:29.011Z,35.27
2018-11-10T12:31:57.205Z,35.47
2018-11-10T12:34:25.205Z,33.80
2018-11-10T12:36:53.306Z,36.00
2018-11-10T12:39:21.378Z,35.37
2018-11-10T12:41:49.526Z,39.33
2018-11-10T12:44:17.626Z,33.13
2018-11-10T12:46:45.657Z,35.77
2018-11-10T12:49:14.109Z,38.03
2018-11-10T12:51:42.046Z,34.87
2018-11-10T12:54:10.058Z,36.23
2018-11-10T12:56:38.292Z,39.03
2018-11-10T12:59:06.586Z,33.00
2018-11-10T13:01:34.634Z,37.47
2018-11-10T13:04:02.747Z,39.17
2018-11-10T13:06:30.838Z,37.00
2018-11-10T13:08:58.977Z,31.47
2018-11-10T13:11:27.023Z,34.87
2018-11-10T13:13:54.998Z,34.30
2018-11-10T13:16:23.101Z,34.23
2018-11-10T13:18:51.146Z,30.73
2018-11-10T13:21:19.210Z,34.03
2018-11-10T13:23:47.310Z,35.57
2018-11-10T13:26:15.394Z,35.83
2018-11-10T13:28:43.481Z,38.77
2018-11-10T13:31:11.566Z,39.20
2018-11-10T13:33:39.667Z,37.80
2018-11-10T13:36:07.665Z,35.07
2018-11-10T13:38:35.733Z,30.87
2018-11-10T13:41:03.810Z,30.80
2018-11-10T13:43:31.855Z,34.73
2018-11-10T13:45:59.974Z,32.93
2018-11-10T13:48:28.058Z,33.40
2018-11-10T13:50:56.263Z,32.77
2018-11-10T13:53:24.115Z,32.97
2018-11-10T13:55:52.220Z,31.60
2018-11-10T13:58:20.386Z,31.70
2018-11-10T14:00:48.441Z,38.90
2018-11-10T14:03:16.545Z,33.87
2018-11-10T14:05:44.570Z,31.47
2018-11-10T14:08:12.617Z,31.80
2018-11-10T14:10:40.662Z,32.17
2018-11-10T14:13:08.680Z,31.87
2018-11-10T14:15:36.777Z,46.23
2018-11-10T14:18:05.027Z,28.20
2018-11-10T14:20:33.263Z,30.67
2018-11-10T14:23:01.439Z,27.70
2018-11-10T14:25:29.466Z,29.00
2018-11-10T14:27:57.493Z,31.90
2018-11-10T14:30:25.801Z,30.40
2018-11-10T14:32:53.877Z,32.13
2018-11-10T14:35:21.967Z,30.63
2018-11-10T14:37:50.037Z,30.63
2018-11-10T14:40:18.409Z,29.73
2018-11-10T14:42:46.780Z,34.30
2018-11-10T14:45:16.184Z,29.00
2018-11-10T14:47:44.594Z,30.77
2018-11-10T14:50:13.378Z,30.23
2018-11-10T14:52:41.716Z,30.07
2018-11-10T14:55:10.557Z,29.17
2018-11-10T14:57:38.714Z,36.47
2018-11-10T15:00:12.054Z,35.43
2018-11-10T15:02:40.138Z,38.80
2018-11-10T15:05:09.209Z,36.80
2018-11-10T15:07:37.298Z,35.43
2018-11-10T15:10:07.362Z,36.67
2018-11-10T15:12:35.384Z,31.73
2018-11-10T15:15:03.398Z,38.00
2018-11-10T15:17:31.583Z,31.90
2018-11-10T15:19:59.585Z,33.47
2018-11-10T15:22:27.705Z,38.63
2018-11-10T15:24:55.863Z,36.07
2018-11-10T15:27:23.873Z,38.00
2018-11-10T15:29:52.006Z,36.73
2018-11-10T15:32:20.010Z,42.83
2018-11-10T15:34:48.060Z,39.10
2018-11-10T15:37:16.123Z,35.33
2018-11-10T15:39:44.224Z,42.75
2018-11-10T15:42:12.278Z,42.17
2018-11-10T15:44:40.390Z,40.07
2018-11-10T15:47:08.457Z,35.93
2018-11-10T15:49:36.877Z,37.43
2018-11-10T15:52:05.143Z,34.53
2018-11-10T15:54:33.189Z,38.20
2018-11-10T15:57:01.343Z,40.80
2018-11-10T15:59:29.441Z,36.40
2018-11-10T16:01:57.466Z,41.87
2018-11-10T16:04:25.642Z,36.37
2018-11-10T16:06:53.981Z,46.53
2018-11-10T16:09:22.106Z,46.43
2018-11-10T16:11:50.062Z,44.63
2018-11-10T16:14:18.258Z,40.40
2018-11-10T16:16:46.305Z,46.23
2018-11-10T16:19:14.714Z,45.23
2018-11-10T16:21:42.765Z,50.30
2018-11-10T16:24:10.930Z,50.10
2018-11-10T16:26:38.981Z,52.10
2018-11-10T16:29:07.043Z,47.47
2018-11-10T16:31:35.438Z,48.63
2018-11-10T16:34:03.456Z,45.27
2018-11-10T16:36:31.480Z,40.77
2018-11-10T16:38:59.533Z,45.07
2018-11-10T16:41:27.674Z,44.20
2018-11-10T16:43:55.730Z,43.87
2018-11-10T16:46:23.817Z,43.03
2018-11-10T16:48:52.099Z,45.10
2018-11-10T16:51:20.209Z,46.67
2018-11-10T16:53:48.291Z,39.10
2018-11-10T16:56:16.345Z,46.17
2018-11-10T16:58:44.411Z,45.63
2018-11-10T17:01:12.555Z,48.30
2018-11-10T17:03:40.708Z,44.80
2018-11-10T17:06:08.820Z,41.93
2018-11-10T17:08:37.002Z,42.93
2018-11-10T17:11:05.830Z,49.37
2018-11-10T17:13:34.019Z,46.40
2018-11-10T17:16:02.035Z,46.13
2018-11-10T17:18:30.230Z,49.57
2018-11-10T17:20:58.364Z,46.10
2018-11-10T17:23:26.409Z,49.27
2018-11-10T17:25:54.423Z,55.07
2018-11-10T17:28:22.514Z,51.37
2018-11-10T17:30:50.562Z,56.90
2018-11-10T17:33:18.645Z,52.30
2018-11-10T17:35:46.654Z,54.70
2018-11-10T17:38:15.018Z,56.73
2018-11-10T17:40:43.161Z,50.10
2018-11-10T17:43:11.192Z,65.60
2018-11-10T17:45:39.274Z,55.03
2018-11-10T17:48:07.535Z,59.00
2018-11-10T17:50:35.969Z,53.90
2018-11-10T17:53:04.041Z,57.00
2018-11-10T17:55:32.082Z,58.70
2018-11-10T17:58:00.238Z,50.17
2018-11-10T18:00:28.288Z,53.47
2018-11-10T18:02:56.489Z,58.43
2018-11-10T18:05:24.606Z,55.40
2018-11-10T18:07:52.749Z,47.57
2018-11-10T18:10:21.002Z,54.47
2018-11-10T18:12:49.309Z,66.10
2018-11-10T18:15:17.434Z,61.73
2018-11-10T18:17:45.698Z,58.80
2018-11-10T18:20:15.045Z,59.10
2018-11-10T18:22:43.553Z,60.23
2018-11-10T18:25:12.613Z,59.50
2018-11-10T18:27:40.926Z,57.43
2018-11-10T18:30:10.482Z,60.90
2018-11-10T18:32:38.978Z,57.37
2018-11-10T18:35:07.900Z,53.80
2018-11-10T18:37:36.345Z,67.77
2018-11-10T18:40:04.650Z,60.83
2018-11-10T18:42:32.614Z,57.80
2018-11-10T18:45:00.721Z,67.10
2018-11-10T18:47:28.796Z,58.80
2018-11-10T18:49:56.834Z,57.50
2018-11-10T18:52:24.876Z,55.17
2018-11-10T18:54:53.221Z,64.77
2018-11-10T18:57:21.469Z,66.83
2018-11-10T18:59:49.272Z,59.33
2018-11-10T19:02:17.318Z,56.43
2018-11-10T19:04:45.564Z,58.17
2018-11-10T19:07:13.891Z,65.57
2018-11-10T19:09:41.913Z,52.40
2018-11-10T19:12:10.021Z,55.10
2018-11-10T19:14:38.117Z,64.20
2018-11-10T19:17:06.138Z,58.93
2018-11-10T19:19:34.629Z,62.87
2018-11-10T19:22:02.653Z,55.47
2018-11-10T19:24:30.649Z,49.07
2018-11-10T19:26:59.037Z,57.40
2018-11-10T19:29:27.060Z,50.20
2018-11-10T19:31:55.061Z,58.10
2018-11-10T19:34:23.111Z,55.20
2018-11-10T19:36:51.745Z,55.87
2018-11-10T19:39:20.074Z,50.97
2018-11-10T19:41:48.110Z,60.40
2018-11-10T19:44:16.196Z,60.47
2018-11-10T19:46:44.483Z,58.80
2018-11-10T19:49:12.504Z,62.10
2018-11-10T19:51:40.978Z,52.60
2018-11-10T19:54:08.793Z,53.23
2018-11-10T19:56:36.812Z,63.77
2018-11-10T19:59:07.745Z,59.20
2018-11-10T20:01:36.122Z,55.70
2018-11-10T20:04:04.166Z,69.83
2018-11-10T20:06:32.424Z,54.47
2018-11-10T20:09:00.507Z,59.53
2018-11-10T20:11:29.007Z,57.60
2018-11-10T20:13:58.043Z,63.67
2018-11-10T20:16:26.052Z,56.23
2018-11-10T20:18:54.075Z,56.60
2018-11-10T20:21:22.321Z,59.90
2018-11-10T20:23:50.388Z,67.47
2018-11-10T20:26:18.409Z,66.93
2018-11-10T20:28:46.486Z,64.87
2018-11-10T20:31:14.962Z,63.40
2018-11-10T20:33:42.991Z,64.63
2018-11-10T20:36:11.005Z,65.17
2018-11-10T20:38:39.443Z,68.80
2018-11-10T20:41:07.808Z,61.83
2018-11-10T20:43:35.813Z,55.10
2018-11-10T20:46:04.058Z,62.83
2018-11-10T20:48:32.370Z,54.33
2018-11-10T20:51:00.520Z,61.27
2018-11-10T20:53:28.461Z,62.60
2018-11-10T20:55:56.846Z,59.03
2018-11-10T20:58:24.865Z,67.40
2018-11-10T21:00:52.893Z,55.93
2018-11-10T21:03:21.295Z,55.60
2018-11-10T21:05:49.504Z,56.63
2018-11-10T21:08:17.374Z,49.70
2018-11-10T21:10:45.446Z,43.83
2018-11-10T21:13:13.463Z,48.80
2018-11-10T21:15:41.525Z,47.63
2018-11-10T21:18:09.604Z,54.53
2018-11-10T21:20:37.670Z,64.27
2018-11-10T21:23:05.706Z,51.70
2018-11-10T21:25:33.709Z,101.67
2018-11-10T21:28:01.794Z,149.07
2018-11-10T21:30:29.801Z,222.30
2018-11-10T21:32:57.858Z,124.67
2018-11-10T21:35:25.924Z,94.07
2018-11-10T21:37:53.938Z,154.43
2018-11-10T21:40:21.993Z,74.80
2018-11-10T21:42:50.038Z,73.17
2018-11-10T21:45:18.509Z,106.90
2018-11-10T21:47:46.799Z,52.87
2018-11-10T21:50:16.174Z,63.40
2018-11-10T21:52:44.777Z,105.73
2018-11-10T21:55:14.533Z,73.93
2018-11-10T21:57:43.329Z,68.20
2018-11-10T22:00:13.060Z,79.43
2018-11-10T22:02:42.183Z,85.53
2018-11-10T22:05:10.253Z,72.90
2018-11-10T22:07:38.536Z,84.80
2018-11-10T22:10:08.190Z,84.13
2018-11-10T22:12:36.250Z,108.70
2018-11-10T22:15:04.573Z,112.10
2018-11-10T22:17:32.593Z,131.80
2018-11-10T22:20:00.712Z,102.67
2018-11-10T22:22:28.809Z,97.27
2018-11-10T22:24:56.806Z,109.97
2018-11-10T22:27:24.845Z,92.97
2018-11-10T22:29:52.901Z,77.43
2018-11-10T22:32:20.922Z,64.37
2018-11-10T22:34:48.986Z,81.80
2018-11-10T22:37:16.997Z,87.07
2018-11-10T22:39:45.050Z,79.73
2018-11-10T22:42:13.154Z,78.87
2018-11-10T22:44:41.222Z,74.07
2018-11-10T22:47:09.326Z,80.03
2018-11-10T22:49:37.410Z,62.97
2018-11-10T22:52:05.659Z,184.63
2018-11-10T22:54:33.693Z,130.17
2018-11-10T22:57:01.800Z,244.93
2018-11-10T22:59:29.909Z,200.30
2018-11-10T23:01:57.934Z,339.40
2018-11-10T23:04:25.946Z,364.13
2018-11-10T23:06:54.355Z,314.50
2018-11-10T23:09:22.438Z,396.67
2018-11-10T23:11:50.533Z,293.77
2018-11-10T23:14:19.989Z,262.80
2018-11-10T23:16:48.196Z,236.50
2018-11-10T23:19:16.726Z,296.80
2018-11-10T23:21:44.854Z,229.27
2018-11-10T23:24:13.251Z,225.73
2018-11-10T23:26:41.262Z,177.20
2018-11-10T23:29:09.273Z,222.90
2018-11-10T23:31:37.352Z,199.17
2018-11-10T23:34:05.394Z,224.37
2018-11-10T23:36:33.716Z,181.33
2018-11-10T23:39:02.349Z,109.07
2018-11-10T23:41:30.654Z,97.63
2018-11-10T23:43:59.070Z,135.43
2018-11-10T23:46:27.186Z,205.87
2018-11-10T23:48:55.197Z,60.77
2018-11-10T23:51:23.294Z,51.23
2018-11-10T23:53:51.409Z,102.00
2018-11-10T23:56:19.469Z,100.47
2018-11-10T23:58:47.513Z,176.23
